Terminal Aerodrome Forecast
Issued by NWS Nashville, TN

Home | Current Version | Previous Version | Text Only | Print | Product List | Glossary On
Versions: 1 2 3 4 5 6 7 8 9 10 11 12 13 14 15 16 17 18 19 20 21 22 23 24 25 26 27 28 29 30 31 32
010
FTUS44 KOHX 052018 AAB
TAFCSV
TAF AMD
KCSV 052018Z 0520/0618 05006KT P6SM OVC003
     FM052200 08006KT 4SM -SHRA BR OVC006
     FM060000 11005KT 1SM SHRA BR OVC003
     FM061200 20006KT 2SM -SHRA BR OVC007=

USA.gov is the U.S. government's official web portal to all federal, state and local government web resources and services.